createdAt,value
2023-05-10T00:01:56.800Z,18.23
2023-05-10T00:04:02.246Z,17.17
2023-05-10T00:06:05.031Z,19.75
2023-05-10T00:08:07.644Z,18.60
2023-05-10T00:10:18.244Z,21.05
2023-05-10T00:12:20.817Z,19.42
2023-05-10T00:14:24.452Z,20.52
2023-05-10T00:16:29.308Z,20.63
2023-05-10T00:18:32.099Z,20.25
2023-05-10T00:20:37.375Z,20.65
2023-05-10T00:22:40.013Z,18.77
2023-05-10T00:24:42.596Z,20.25
2023-05-10T00:26:45.380Z,19.85
2023-05-10T00:28:47.998Z,18.88
2023-05-10T00:30:50.762Z,18.98
2023-05-10T00:32:53.466Z,19.77
2023-05-10T00:34:58.968Z,18.33
2023-05-10T00:37:13.737Z,20.20
2023-05-10T00:39:16.302Z,19.98
2023-05-10T00:41:18.852Z,17.77
2023-05-10T00:43:22.282Z,19.55
2023-05-10T00:45:26.255Z,20.83
2023-05-10T00:47:29.203Z,20.38
2023-05-10T00:49:32.521Z,19.95
2023-05-10T00:51:35.502Z,19.63
2023-05-10T00:53:41.453Z,18.45
2023-05-10T00:55:44.184Z,20.40
2023-05-10T00:57:47.030Z,20.55
2023-05-10T00:59:52.704Z,20.63
2023-05-10T01:01:58.228Z,20.08
2023-05-10T01:04:01.987Z,19.63
2023-05-10T01:06:07.241Z,18.67
2023-05-10T01:08:12.602Z,18.65
2023-05-10T01:10:18.249Z,19.67
2023-05-10T01:12:21.321Z,19.02
2023-05-10T01:14:26.917Z,19.70
2023-05-10T01:16:31.363Z,19.35
2023-05-10T01:18:36.108Z,18.48
2023-05-10T01:20:44.616Z,20.35
2023-05-10T01:23:18.812Z,20.33
2023-05-10T01:25:45.444Z,18.05
2023-05-10T01:28:18.977Z,19.58
2023-05-10T01:30:55.862Z,19.15
2023-05-10T01:33:09.797Z,19.80
2023-05-10T01:35:24.109Z,19.33
2023-05-10T01:37:34.590Z,19.95
2023-05-10T01:39:44.223Z,19.42
2023-05-10T01:41:51.985Z,19.25
2023-05-10T01:44:02.417Z,19.00
2023-05-10T01:46:12.199Z,20.23
2023-05-10T01:48:19.723Z,19.83
2023-05-10T01:50:29.946Z,19.17
2023-05-10T01:52:37.650Z,20.05
2023-05-10T01:54:45.978Z,19.33
2023-05-10T01:56:51.678Z,20.48
2023-05-10T01:58:55.919Z,20.35
2023-05-10T02:03:07.798Z,21.92
2023-05-10T02:05:15.217Z,20.30
2023-05-10T02:07:18.644Z,20.08
2023-05-10T02:09:22.369Z,20.90
2023-05-10T02:11:28.950Z,19.90
2023-05-10T02:13:33.798Z,20.73
2023-05-10T02:15:37.766Z,20.42
2023-05-10T02:17:44.444Z,20.92
2023-05-10T02:19:49.579Z,20.73
2023-05-10T02:21:56.421Z,20.48
2023-05-10T02:24:00.763Z,20.08
2023-05-10T02:26:06.969Z,20.60
2023-05-10T02:28:11.059Z,21.60
2023-05-10T02:32:18.911Z,19.80
2023-05-10T02:34:24.328Z,20.65
2023-05-10T02:38:35.898Z,21.30
2023-05-10T02:40:39.375Z,21.55
2023-05-10T02:42:46.699Z,22.30
2023-05-10T02:44:51.711Z,20.75
2023-05-10T02:46:57.131Z,20.70
2023-05-10T02:48:59.962Z,21.15
2023-05-10T02:51:06.410Z,21.05
2023-05-10T02:53:16.271Z,20.98
2023-05-10T02:55:26.576Z,20.38
2023-05-10T02:57:35.372Z,19.55
2023-05-10T02:59:38.339Z,20.30
2023-05-10T03:01:41.012Z,19.58
2023-05-10T03:03:43.551Z,20.48
2023-05-10T03:05:46.612Z,20.35
2023-05-10T03:07:49.424Z,20.52
2023-05-10T03:09:52.279Z,20.17
2023-05-10T03:12:08.289Z,21.67
2023-05-10T03:14:22.461Z,22.23
2023-05-10T03:16:31.559Z,22.48
2023-05-10T03:18:42.736Z,22.45
2023-05-10T03:20:51.636Z,20.60
2023-05-10T03:23:01.944Z,21.23
2023-05-10T03:25:07.988Z,22.45
2023-05-10T03:27:15.563Z,22.77
2023-05-10T03:29:19.828Z,21.52
2023-05-10T03:31:23.035Z,21.00
2023-05-10T03:33:25.925Z,22.13
2023-05-10T03:35:29.584Z,21.00
2023-05-10T03:37:32.151Z,23.02
2023-05-10T03:39:34.734Z,22.08
2023-05-10T03:41:38.590Z,22.55
2023-05-10T03:43:43.976Z,22.10
2023-05-10T03:45:46.676Z,22.15
2023-05-10T03:47:49.449Z,20.42
2023-05-10T03:49:52.335Z,21.40
2023-05-10T03:51:55.277Z,22.27
2023-05-10T03:53:57.897Z,23.42
2023-05-10T03:56:00.769Z,22.48
2023-05-10T03:58:03.431Z,23.52
2023-05-10T04:00:12.951Z,21.55
2023-05-10T04:02:18.584Z,21.95
2023-05-10T04:04:22.621Z,23.73
2023-05-10T04:06:26.261Z,22.80
2023-05-10T04:08:29.280Z,24.52
2023-05-10T04:10:33.467Z,23.05
2023-05-10T04:12:36.688Z,23.27
2023-05-10T04:14:39.228Z,24.20
2023-05-10T04:16:45.186Z,24.03
2023-05-10T04:18:49.241Z,26.02
2023-05-10T04:20:54.337Z,23.70
2023-05-10T04:23:00.063Z,23.42
2023-05-10T04:25:02.745Z,22.80
2023-05-10T04:27:05.573Z,23.08
2023-05-10T04:29:08.602Z,23.33
2023-05-10T04:31:11.597Z,23.63
2023-05-10T04:33:17.056Z,23.30
2023-05-10T04:35:21.567Z,23.77
2023-05-10T04:37:24.215Z,23.60
2023-05-10T04:39:26.890Z,22.80
2023-05-10T04:41:29.720Z,21.10
2023-05-10T04:43:32.346Z,21.20
2023-05-10T04:45:35.009Z,20.73
2023-05-10T04:47:38.362Z,20.15
2023-05-10T04:49:43.717Z,19.23
2023-05-10T04:51:46.219Z,19.60
2023-05-10T04:54:08.788Z,19.90
2023-05-10T04:56:31.325Z,20.98
2023-05-10T04:58:53.813Z,20.95
2023-05-10T05:01:16.244Z,20.00
2023-05-10T05:03:39.060Z,20.05
2023-05-10T05:06:04.867Z,18.95
2023-05-10T05:08:27.554Z,18.60
2023-05-10T05:10:51.425Z,19.08
2023-05-10T05:12:54.392Z,19.05
2023-05-10T05:14:58.399Z,19.02
2023-05-10T05:17:01.013Z,18.15
2023-05-10T05:19:04.249Z,20.73
2023-05-10T05:23:21.887Z,20.13
2023-05-10T05:25:24.892Z,18.73
2023-05-10T05:27:29.067Z,19.88
2023-05-10T05:29:31.947Z,19.42
2023-05-10T05:31:34.506Z,18.65
2023-05-10T05:33:37.030Z,19.35
2023-05-10T05:35:39.677Z,19.75
2023-05-10T05:37:45.122Z,20.30
2023-05-10T05:39:47.720Z,20.70
2023-05-10T05:41:50.081Z,20.38
2023-05-10T05:43:52.623Z,18.35
2023-05-10T05:45:55.324Z,18.67
2023-05-10T05:47:57.884Z,20.25
2023-05-10T05:50:00.452Z,20.05
2023-05-10T05:52:04.415Z,17.83
2023-05-10T05:54:09.569Z,18.35
2023-05-10T05:56:14.827Z,18.50
2023-05-10T05:58:17.385Z,18.38
2023-05-10T06:00:20.003Z,18.20
2023-05-10T06:02:22.687Z,18.25
2023-05-10T06:04:25.463Z,18.95
2023-05-10T06:06:28.116Z,19.38
2023-05-10T06:08:30.703Z,19.80
2023-05-10T06:10:35.997Z,18.92
2023-05-10T06:12:38.553Z,18.33
2023-05-10T06:14:40.973Z,17.40
2023-05-10T06:16:43.541Z,18.17
2023-05-10T06:18:46.284Z,18.50
2023-05-10T06:20:48.720Z,17.38
2023-05-10T06:22:51.885Z,18.00
2023-05-10T06:24:57.298Z,16.52
2023-05-10T06:27:03.317Z,17.00
2023-05-10T06:29:06.174Z,17.23
2023-05-10T06:31:08.741Z,15.70
2023-05-10T06:33:11.406Z,16.40
2023-05-10T06:35:14.292Z,16.42
2023-05-10T06:37:16.945Z,16.73
2023-05-10T06:39:19.416Z,18.52
2023-05-10T06:41:25.081Z,17.58
2023-05-10T06:43:30.213Z,18.25
2023-05-10T06:45:32.881Z,19.48
2023-05-10T06:47:39.291Z,18.15
2023-05-10T06:49:42.092Z,18.67
2023-05-10T06:51:45.068Z,20.73
2023-05-10T06:53:47.734Z,19.10
2023-05-10T06:55:51.027Z,17.92
2023-05-10T06:57:54.147Z,17.07
2023-05-10T07:00:00.634Z,17.17
2023-05-10T07:02:05.615Z,17.85
2023-05-10T07:04:08.788Z,18.27
2023-05-10T07:06:21.796Z,18.10
2023-05-10T07:08:33.904Z,17.45
2023-05-10T07:10:36.988Z,18.05
2023-05-10T07:12:39.739Z,19.05
2023-05-10T07:14:43.004Z,18.20
2023-05-10T07:16:48.365Z,19.02
2023-05-10T07:18:51.807Z,18.00
2023-05-10T07:20:54.350Z,17.65
2023-05-10T07:22:57.601Z,18.35
2023-05-10T07:25:00.243Z,16.73
2023-05-10T07:27:02.910Z,18.50
2023-05-10T07:29:05.551Z,17.70
2023-05-10T07:31:08.123Z,17.50
2023-05-10T07:33:15.186Z,16.70
2023-05-10T07:35:18.076Z,16.30
2023-05-10T07:37:24.074Z,16.77
2023-05-10T07:39:28.749Z,18.08
2023-05-10T07:41:32.299Z,17.58
2023-05-10T07:43:35.022Z,18.73
2023-05-10T07:45:38.193Z,18.92
2023-05-10T07:47:40.764Z,19.50
2023-05-10T07:49:45.944Z,19.88
2023-05-10T07:51:48.430Z,16.60
2023-05-10T07:53:50.864Z,18.23
2023-05-10T07:55:55.579Z,17.23
2023-05-10T07:57:58.060Z,17.35
2023-05-10T08:00:00.763Z,17.55
2023-05-10T08:02:03.438Z,16.27
2023-05-10T08:04:05.953Z,15.27
2023-05-10T08:06:11.445Z,17.48
2023-05-10T08:08:13.878Z,17.00
2023-05-10T08:10:16.380Z,17.52
2023-05-10T08:12:18.760Z,17.38
2023-05-10T08:14:21.370Z,17.83
2023-05-10T08:16:24.045Z,15.70
2023-05-10T08:18:26.668Z,16.42
2023-05-10T08:20:29.118Z,17.20
2023-05-10T08:22:34.383Z,16.38
2023-05-10T08:24:39.530Z,17.45
2023-05-10T08:26:42.085Z,16.88
2023-05-10T08:28:47.338Z,17.20
2023-05-10T08:30:50.948Z,15.10
2023-05-10T08:32:53.392Z,16.20
2023-05-10T08:34:56.265Z,16.30
2023-05-10T08:36:58.765Z,15.60
2023-05-10T08:39:03.964Z,18.02
2023-05-10T08:41:07.255Z,18.65
2023-05-10T08:43:12.096Z,17.17
2023-05-10T08:45:17.071Z,17.92
2023-05-10T08:47:20.280Z,17.52
2023-05-10T08:49:24.010Z,15.40
2023-05-10T08:51:28.314Z,16.63
2023-05-10T08:53:34.250Z,15.75
2023-05-10T08:55:40.122Z,16.05
2023-05-10T08:57:42.775Z,15.98
2023-05-10T08:59:45.478Z,16.48
2023-05-10T09:01:50.558Z,15.30
2023-05-10T09:03:53.545Z,15.88
2023-05-10T09:05:58.726Z,16.45
2023-05-10T09:08:03.993Z,17.70
2023-05-10T09:10:08.194Z,18.95
2023-05-10T09:16:21.975Z,15.93
2023-05-10T09:18:27.843Z,16.63
2023-05-10T09:20:30.672Z,15.73
2023-05-10T09:22:33.255Z,15.68
2023-05-10T09:24:35.880Z,15.05
2023-05-10T09:26:48.881Z,17.40
2023-05-10T09:28:57.211Z,14.50
2023-05-10T09:30:59.769Z,14.30
2023-05-10T09:33:05.208Z,17.58
2023-05-10T09:35:08.632Z,16.42
2023-05-10T09:37:11.723Z,15.85
2023-05-10T09:39:14.298Z,15.88
2023-05-10T09:41:20.477Z,15.73
2023-05-10T09:43:23.003Z,16.13
2023-05-10T09:45:29.548Z,15.45
2023-05-10T09:47:38.305Z,16.85
2023-05-10T09:49:42.751Z,15.18
2023-05-10T09:51:45.247Z,20.60
2023-05-10T09:53:47.769Z,23.95
2023-05-10T09:55:51.777Z,21.15
2023-05-10T09:58:01.720Z,16.77
2023-05-10T10:00:07.020Z,16.98
2023-05-10T10:02:18.895Z,17.02
2023-05-10T10:04:22.600Z,17.48
2023-05-10T10:06:30.195Z,17.40
2023-05-10T10:08:33.323Z,15.32
2023-05-10T10:10:36.450Z,14.65
2023-05-10T10:12:40.047Z,13.23
2023-05-10T10:14:43.616Z,15.77
2023-05-10T10:16:59.601Z,16.67
2023-05-10T10:19:19.291Z,18.45
2023-05-10T10:21:25.700Z,15.55
2023-05-10T10:23:28.992Z,15.07
2023-05-10T10:25:32.079Z,13.97
2023-05-10T10:27:47.286Z,14.23
2023-05-10T10:30:00.491Z,10.40
2023-05-10T10:32:20.268Z,11.48
2023-05-10T10:34:29.200Z,9.35
2023-05-10T10:36:32.452Z,11.13
2023-05-10T10:38:39.772Z,13.30
2023-05-10T10:40:42.250Z,10.55
2023-05-10T10:42:48.151Z,8.93
2023-05-10T10:44:50.742Z,12.27
2023-05-10T10:47:01.610Z,13.40
2023-05-10T10:49:13.966Z,12.52
2023-05-10T10:51:19.099Z,12.35
2023-05-10T10:53:21.690Z,13.00
2023-05-10T10:55:27.663Z,11.10
2023-05-10T10:57:33.719Z,10.57
2023-05-10T10:59:36.577Z,12.07
2023-05-10T11:01:45.623Z,13.20
2023-05-10T11:04:20.892Z,10.18
2023-05-10T11:06:36.271Z,12.25
2023-05-10T11:08:47.273Z,14.35
2023-05-10T11:11:08.359Z,13.70
2023-05-10T11:13:12.412Z,11.65
2023-05-10T11:15:15.102Z,10.27
2023-05-10T11:17:29.118Z,9.15
2023-05-10T11:19:33.091Z,8.25
2023-05-10T11:21:49.100Z,9.32
2023-05-10T11:23:52.997Z,9.43
2023-05-10T11:25:56.034Z,8.57
2023-05-10T11:28:05.995Z,8.52
2023-05-10T11:30:11.280Z,10.20
2023-05-10T11:32:14.560Z,8.65
2023-05-10T11:34:27.448Z,7.77
2023-05-10T11:36:38.239Z,9.07
2023-05-10T11:38:43.739Z,9.45
2023-05-10T11:40:46.388Z,8.57
2023-05-10T11:42:48.843Z,9.13
2023-05-10T11:44:51.350Z,8.18
2023-05-10T11:46:53.971Z,8.27
2023-05-10T11:49:01.609Z,10.25
2023-05-10T11:51:04.334Z,9.10
2023-05-10T11:53:09.735Z,7.65
2023-05-10T11:55:16.961Z,7.88
2023-05-10T11:57:20.524Z,7.78
2023-05-10T11:59:23.188Z,9.30
2023-05-10T12:01:26.472Z,8.63
2023-05-10T12:03:30.926Z,9.87
2023-05-10T12:05:35.000Z,8.85
2023-05-10T12:07:37.544Z,10.65
2023-05-10T12:09:44.532Z,11.05
2023-05-10T12:11:49.602Z,11.73
2023-05-10T12:13:55.187Z,10.27
2023-05-10T12:15:59.869Z,12.38
2023-05-10T12:18:04.033Z,12.02
2023-05-10T12:20:17.529Z,10.38
2023-05-10T12:22:22.330Z,12.43
2023-05-10T12:24:26.591Z,10.43
2023-05-10T12:28:35.292Z,9.90
2023-05-10T12:30:38.692Z,10.75
2023-05-10T12:32:42.015Z,12.25
2023-05-10T12:34:47.706Z,11.75
2023-05-10T12:36:52.013Z,21.65
2023-05-10T12:41:07.213Z,13.85
2023-05-10T12:45:18.908Z,11.95
2023-05-10T12:47:21.352Z,11.30
2023-05-10T12:49:23.875Z,11.50
2023-05-10T12:51:27.559Z,10.52
2023-05-10T12:53:30.184Z,17.70
2023-05-10T12:55:32.598Z,12.30
2023-05-10T12:57:35.060Z,12.18
2023-05-10T12:59:38.359Z,12.50
2023-05-10T13:01:43.780Z,15.43
2023-05-10T13:03:46.449Z,11.63
2023-05-10T13:05:51.059Z,10.60
2023-05-10T13:07:53.549Z,11.35
2023-05-10T13:09:56.130Z,9.52
2023-05-10T13:11:59.202Z,9.07
2023-05-10T13:14:01.649Z,8.60
2023-05-10T13:16:04.496Z,8.30
2023-05-10T13:18:12.163Z,9.00
2023-05-10T13:20:15.355Z,8.55
2023-05-10T13:22:25.646Z,8.53
2023-05-10T13:24:35.528Z,8.63
2023-05-10T13:26:38.228Z,8.15
2023-05-10T13:28:41.790Z,8.85
2023-05-10T13:30:44.249Z,9.73
2023-05-10T13:32:46.925Z,8.20
2023-05-10T13:34:54.682Z,8.68
2023-05-10T13:36:57.462Z,9.40
2023-05-10T13:38:59.967Z,8.65
2023-05-10T13:41:03.456Z,9.40
2023-05-10T13:43:06.000Z,10.27
2023-05-10T13:45:09.403Z,9.27
2023-05-10T13:47:12.506Z,11.70
2023-05-10T13:49:14.957Z,9.88
2023-05-10T13:51:20.126Z,11.20
2023-05-10T13:53:22.867Z,10.40
2023-05-10T13:55:28.302Z,11.35
2023-05-10T13:57:31.482Z,10.48
2023-05-10T13:59:34.182Z,10.02
2023-05-10T14:01:36.648Z,10.93
2023-05-10T14:03:40.367Z,10.13
2023-05-10T14:05:43.098Z,11.88
2023-05-10T14:07:48.351Z,11.52
2023-05-10T14:09:50.728Z,11.60
2023-05-10T14:11:54.269Z,9.07
2023-05-10T14:13:57.028Z,8.93
2023-05-10T14:16:01.724Z,12.38
2023-05-10T14:18:04.584Z,9.70
2023-05-10T14:20:08.739Z,9.60
2023-05-10T14:22:11.354Z,9.02
2023-05-10T14:24:16.587Z,9.63
2023-05-10T14:26:21.889Z,10.05
2023-05-10T14:28:25.876Z,8.82
2023-05-10T14:30:33.958Z,7.75
2023-05-10T14:32:37.869Z,9.10
2023-05-10T14:34:42.376Z,10.32
2023-05-10T14:36:44.888Z,10.85
2023-05-10T14:38:47.758Z,10.27
2023-05-10T14:40:52.869Z,9.15
2023-05-10T14:42:58.231Z,10.57
2023-05-10T14:45:02.413Z,9.02
2023-05-10T14:49:07.277Z,8.38
2023-05-10T14:51:09.848Z,7.47
2023-05-10T14:53:12.436Z,8.32
2023-05-10T14:55:15.034Z,11.23
2023-05-10T14:57:20.305Z,9.98
2023-05-10T14:59:22.881Z,9.57
2023-05-10T15:01:25.732Z,8.85
2023-05-10T15:03:29.268Z,7.60
2023-05-10T15:05:32.483Z,7.20
2023-05-10T15:07:35.253Z,7.50
2023-05-10T15:09:38.129Z,7.43
2023-05-10T15:11:40.629Z,7.50
2023-05-10T15:13:45.747Z,7.78
2023-05-10T15:15:48.206Z,7.00
2023-05-10T15:17:50.812Z,7.88
2023-05-10T15:19:53.316Z,7.32
2023-05-10T15:21:56.567Z,6.97
2023-05-10T15:23:59.003Z,8.05
2023-05-10T15:26:01.958Z,6.85
2023-05-10T15:28:05.319Z,7.97
2023-05-10T15:30:12.260Z,7.70
2023-05-10T15:32:18.772Z,7.65
2023-05-10T15:34:24.282Z,8.10
2023-05-10T15:36:26.967Z,7.70
2023-05-10T15:38:29.411Z,7.93
2023-05-10T15:40:31.845Z,7.97
2023-05-10T15:42:34.654Z,7.88
2023-05-10T15:44:39.500Z,9.23
2023-05-10T15:46:44.806Z,9.77
2023-05-10T15:48:47.303Z,10.02
2023-05-10T15:50:49.727Z,9.10
2023-05-10T15:52:52.357Z,8.95
2023-05-10T15:54:56.722Z,10.40
2023-05-10T15:57:00.367Z,9.32
2023-05-10T15:59:03.844Z,9.15
2023-05-10T16:01:06.876Z,9.52
2023-05-10T16:03:12.014Z,9.27
2023-05-10T16:05:16.341Z,9.98
2023-05-10T16:07:19.169Z,8.77
2023-05-10T16:09:23.030Z,9.50
2023-05-10T16:11:28.607Z,9.05
2023-05-10T16:13:31.309Z,9.38
2023-05-10T16:15:34.118Z,9.00
2023-05-10T16:17:37.723Z,9.75
2023-05-10T16:19:43.022Z,9.90
2023-05-10T16:21:46.996Z,9.18
2023-05-10T16:23:49.509Z,9.23
2023-05-10T16:25:54.603Z,9.35
2023-05-10T16:27:57.525Z,10.88
2023-05-10T16:30:00.053Z,11.30
2023-05-10T16:32:02.620Z,8.93
2023-05-10T16:34:06.943Z,11.20
2023-05-10T16:36:12.177Z,11.00
2023-05-10T16:38:15.241Z,11.27
2023-05-10T16:40:18.142Z,9.35
2023-05-10T16:42:20.813Z,9.95
2023-05-10T16:44:25.752Z,8.55
2023-05-10T16:46:30.639Z,8.70
2023-05-10T16:48:33.049Z,9.27
2023-05-10T16:50:36.130Z,12.70
2023-05-10T16:52:41.255Z,9.38
2023-05-10T16:54:43.694Z,9.13
2023-05-10T16:56:46.162Z,8.77
2023-05-10T16:58:51.886Z,11.27
2023-05-10T17:00:54.418Z,8.80
2023-05-10T17:02:59.907Z,7.85
2023-05-10T17:05:02.473Z,9.40
2023-05-10T17:07:08.902Z,9.52
2023-05-10T17:11:16.742Z,10.15
2023-05-10T17:13:19.232Z,9.27
2023-05-10T17:15:21.935Z,12.07
2023-05-10T17:17:24.704Z,12.32
2023-05-10T17:19:27.287Z,13.15
2023-05-10T17:21:32.482Z,10.45
2023-05-10T17:23:37.800Z,7.88
2023-05-10T17:25:42.969Z,9.48
2023-05-10T17:27:45.573Z,8.07
2023-05-10T17:29:48.028Z,9.00
2023-05-10T17:31:50.617Z,9.75
2023-05-10T17:33:53.613Z,11.38
2023-05-10T17:35:57.073Z,9.70
2023-05-10T17:37:59.575Z,11.38
2023-05-10T17:40:03.276Z,11.55
2023-05-10T17:42:08.520Z,9.93
2023-05-10T17:44:13.337Z,11.00
2023-05-10T17:46:16.048Z,11.25
2023-05-10T17:48:18.730Z,9.45
2023-05-10T17:50:21.355Z,11.65
2023-05-10T17:52:23.824Z,11.02
2023-05-10T17:54:26.500Z,10.90
2023-05-10T17:56:29.080Z,13.00
2023-05-10T17:58:38.454Z,13.70
2023-05-10T18:00:42.253Z,11.52
2023-05-10T18:02:44.908Z,12.32
2023-05-10T18:04:49.532Z,12.65
2023-05-10T18:06:52.219Z,11.65
2023-05-10T18:08:54.768Z,12.95
2023-05-10T18:10:57.340Z,11.93
2023-05-10T18:13:00.809Z,11.55
2023-05-10T18:15:06.974Z,12.00
2023-05-10T18:17:12.585Z,12.18
2023-05-10T18:19:15.289Z,12.55
2023-05-10T18:21:18.235Z,12.02
2023-05-10T18:23:21.133Z,15.50
2023-05-10T18:25:23.957Z,14.98
2023-05-10T18:27:26.812Z,14.80
2023-05-10T18:29:31.425Z,16.30
2023-05-10T18:31:36.852Z,15.65
2023-05-10T18:33:39.457Z,17.08
2023-05-10T18:35:41.965Z,18.25
2023-05-10T18:37:48.844Z,18.48
2023-05-10T18:39:51.586Z,16.50
2023-05-10T18:41:54.301Z,17.13
2023-05-10T18:43:56.938Z,16.63
2023-05-10T18:45:59.656Z,15.52
2023-05-10T18:48:04.943Z,15.60
2023-05-10T18:50:08.753Z,15.05
2023-05-10T18:52:11.225Z,15.70
2023-05-10T18:54:16.608Z,15.88
2023-05-10T18:56:19.057Z,16.38
2023-05-10T18:58:22.403Z,14.82
2023-05-10T19:00:25.303Z,15.77
2023-05-10T19:02:28.034Z,14.68
2023-05-10T19:04:46.962Z,15.82
2023-05-10T19:06:49.730Z,15.73
2023-05-10T19:08:52.791Z,13.70
2023-05-10T19:10:56.044Z,16.27
2023-05-10T19:12:58.851Z,14.18
2023-05-10T19:15:11.957Z,14.68
2023-05-10T19:17:14.553Z,15.00
2023-05-10T19:19:17.892Z,15.77
2023-05-10T19:21:25.651Z,15.63
2023-05-10T19:23:28.616Z,16.38
2023-05-10T19:25:32.112Z,15.82
2023-05-10T19:27:34.795Z,16.90
2023-05-10T19:29:38.571Z,15.48
2023-05-10T19:31:41.275Z,15.82
2023-05-10T19:33:43.957Z,17.50
2023-05-10T19:35:51.642Z,16.63
2023-05-10T19:37:57.646Z,16.67
2023-05-10T19:40:01.864Z,16.30
2023-05-10T19:42:05.529Z,16.73
2023-05-10T19:44:08.615Z,15.40
2023-05-10T19:46:11.164Z,16.08
2023-05-10T19:48:19.635Z,16.58
2023-05-10T19:50:22.235Z,16.33
2023-05-10T19:52:25.038Z,15.77
2023-05-10T19:54:31.025Z,16.50
2023-05-10T19:56:33.550Z,15.73
2023-05-10T19:58:36.269Z,16.10
2023-05-10T20:00:38.853Z,15.57
2023-05-10T20:02:41.607Z,17.40
2023-05-10T20:04:44.440Z,16.33
2023-05-10T20:06:47.208Z,18.10
2023-05-10T20:08:50.003Z,17.58
2023-05-10T20:10:55.201Z,20.33
2023-05-10T20:12:58.884Z,18.58
2023-05-10T20:15:06.614Z,18.42
2023-05-10T20:17:09.165Z,17.77
2023-05-10T20:19:12.571Z,17.23
2023-05-10T20:21:15.192Z,18.07
2023-05-10T20:23:17.664Z,18.38
2023-05-10T20:25:20.586Z,18.52
2023-05-10T20:27:25.969Z,16.25
2023-05-10T20:29:28.663Z,18.40
2023-05-10T20:31:31.644Z,17.35
2023-05-10T20:35:38.134Z,15.63
2023-05-10T20:37:40.873Z,18.55
2023-05-10T20:39:44.737Z,16.73
2023-05-10T20:41:47.284Z,18.38
2023-05-10T20:43:52.462Z,18.27
2023-05-10T20:45:57.084Z,18.50
2023-05-10T20:47:59.734Z,16.98
2023-05-10T20:50:02.419Z,16.90
2023-05-10T20:52:05.951Z,17.17
2023-05-10T20:54:12.829Z,16.52
2023-05-10T20:56:16.165Z,17.08
2023-05-10T20:58:22.528Z,16.92
2023-05-10T21:00:30.354Z,16.77
2023-05-10T21:02:32.994Z,16.00
2023-05-10T21:04:41.337Z,18.55
2023-05-10T21:06:44.570Z,17.50
2023-05-10T21:08:51.815Z,17.63
2023-05-10T21:10:55.690Z,17.33
2023-05-10T21:12:58.389Z,18.52
2023-05-10T21:15:00.905Z,18.25
2023-05-10T21:17:08.291Z,19.13
2023-05-10T21:19:17.355Z,18.52
2023-05-10T21:21:20.730Z,18.52
2023-05-10T21:23:29.357Z,19.95
2023-05-10T21:25:32.582Z,19.40
2023-05-10T21:27:50.442Z,20.48
2023-05-10T21:29:55.874Z,19.92
2023-05-10T21:31:58.407Z,22.20
2023-05-10T21:34:03.814Z,20.55
2023-05-10T21:36:07.440Z,21.10
2023-05-10T21:38:10.148Z,23.15
2023-05-10T21:40:16.521Z,21.77
2023-05-10T21:42:19.334Z,22.73
2023-05-10T21:44:21.820Z,20.20
2023-05-10T21:46:24.537Z,20.58
2023-05-10T21:48:27.332Z,19.08
2023-05-10T21:50:32.614Z,20.75
2023-05-10T21:52:35.118Z,21.75
2023-05-10T21:54:37.674Z,19.60
2023-05-10T21:56:40.408Z,19.50
2023-05-10T21:58:42.997Z,18.45
2023-05-10T22:00:46.358Z,19.10
2023-05-10T22:02:48.929Z,18.60
2023-05-10T22:04:56.298Z,19.25
2023-05-10T22:07:05.362Z,22.88
2023-05-10T22:09:08.127Z,23.52
2023-05-10T22:11:10.755Z,22.40
2023-05-10T22:13:13.438Z,20.13
2023-05-10T22:15:16.066Z,22.83
2023-05-10T22:17:18.882Z,20.42
2023-05-10T22:19:24.453Z,20.38
2023-05-10T22:21:29.442Z,22.25
2023-05-10T22:23:34.769Z,21.52
2023-05-10T22:25:37.195Z,20.90
2023-05-10T22:27:43.381Z,20.95
2023-05-10T22:29:46.713Z,16.98
2023-05-10T22:31:49.648Z,18.60
2023-05-10T22:33:53.007Z,17.83
2023-05-10T22:35:56.076Z,17.25
2023-05-10T22:37:58.801Z,17.40
2023-05-10T22:40:04.376Z,15.48
2023-05-10T22:42:08.258Z,17.23
2023-05-10T22:44:10.818Z,18.10
2023-05-10T22:46:13.738Z,16.75
2023-05-10T22:48:16.567Z,16.85
2023-05-10T22:50:19.689Z,17.30
2023-05-10T22:52:22.422Z,18.90
2023-05-10T22:54:25.225Z,18.35
2023-05-10T22:56:31.417Z,15.63
2023-05-10T22:58:34.234Z,17.42
2023-05-10T23:00:36.905Z,17.60
2023-05-10T23:02:39.557Z,15.88
2023-05-10T23:04:42.160Z,18.17
2023-05-10T23:06:46.099Z,17.55
2023-05-10T23:08:49.499Z,15.60
2023-05-10T23:10:52.854Z,17.77
2023-05-10T23:13:00.471Z,16.23
2023-05-10T23:15:07.030Z,17.30
2023-05-10T23:17:09.556Z,17.80
2023-05-10T23:19:16.556Z,18.65
2023-05-10T23:21:19.100Z,16.73
2023-05-10T23:23:22.861Z,20.17
2023-05-10T23:25:25.357Z,19.42
2023-05-10T23:27:31.570Z,20.25
2023-05-10T23:29:36.679Z,20.33
2023-05-10T23:31:45.621Z,19.70
2023-05-10T23:33:48.208Z,18.90
2023-05-10T23:35:51.048Z,20.15
2023-05-10T23:37:53.599Z,19.92
2023-05-10T23:40:07.914Z,18.23
2023-05-10T23:42:11.185Z,20.13
2023-05-10T23:44:16.919Z,19.73
2023-05-10T23:46:22.136Z,20.23
2023-05-10T23:48:25.013Z,20.80
2023-05-10T23:50:27.519Z,19.50
2023-05-10T23:52:30.257Z,20.90
2023-05-10T23:54:38.955Z,20.27
2023-05-10T23:56:41.854Z,20.23
2023-05-10T23:58:44.346Z,20.52
